Time;durP1;ratioP1;P1;durP2;ratioP2;P2;SDS_P1;SDS_P2;PMS_P1;PMS_P2;Temp;Humidity;BMP_temperature;BMP_pressure;BME280_temperature;BME280_humidity;BME280_pressure;Samples;Min_cycle;Max_cycle;Signal;HPM_P1;HPM_P2
2022/04/11 00:00:10;;;;;;;5.47;2.07;;;;;;;;;;4950238;29;20588;-61
2022/04/11 00:02:37;;;;;;;5.80;1.37;;;;;;;;;;4949664;29;20211;-61
2022/04/11 00:05:04;;;;;;;1.10;1.10;;;;;;;;;;4946900;29;20203;-61
2022/04/11 00:07:31;;;;;;;0.80;0.80;;;;;;;;;;4949553;29;20229;-61
2022/04/11 00:09:58;;;;;;;0.90;0.90;;;;;;;;;;4949597;29;20203;-61
2022/04/11 00:12:26;;;;;;;1.37;1.00;;;;;;;;;;4949453;29;20207;-61
2022/04/11 00:14:53;;;;;;;0.87;0.87;;;;;;;;;;4945716;29;20330;-61
2022/04/11 00:17:21;;;;;;;1.10;1.10;;;;;;;;;;4947550;29;20215;-61
2022/04/11 00:19:49;;;;;;;1.20;1.10;;;;;;;;;;4948735;29;20300;-61
2022/04/11 00:22:16;;;;;;;0.97;0.97;;;;;;;;;;4949145;29;20695;-61
2022/04/11 00:24:43;;;;;;;1.10;1.10;;;;;;;;;;4948008;29;20221;-61
2022/04/11 00:27:10;;;;;;;2.43;0.90;;;;;;;;;;4948281;29;20207;-61
2022/04/11 00:29:37;;;;;;;1.20;1.10;;;;;;;;;;4947602;29;20272;-61
2022/04/11 00:32:04;;;;;;;0.90;0.90;;;;;;;;;;4946424;29;20611;-61
2022/04/11 00:34:33;;;;;;;0.80;0.80;;;;;;;;;;4947540;29;20222;-61
2022/04/11 00:37:00;;;;;;;0.90;0.90;;;;;;;;;;4944197;29;20732;-60
2022/04/11 00:39:27;;;;;;;0.87;0.87;;;;;;;;;;4948939;29;20218;-60
2022/04/11 00:41:54;;;;;;;1.37;0.67;;;;;;;;;;4944312;29;20469;-61
2022/04/11 00:44:21;;;;;;;0.67;0.67;;;;;;;;;;4947015;29;20230;-61
2022/04/11 00:46:48;;;;;;;1.03;1.03;;;;;;;;;;4947672;29;20222;-61
2022/04/11 00:49:15;;;;;;;1.27;1.27;;;;;;;;;;4949033;29;20210;-61
2022/04/11 00:51:43;;;;;;;3.50;1.10;;;;;;;;;;4948380;28;20610;-61
2022/04/11 00:54:10;;;;;;;1.10;0.97;;;;;;;;;;4953302;29;20775;-61
2022/04/11 00:56:37;;;;;;;1.03;1.03;;;;;;;;;;4951861;29;20729;-61
2022/04/11 00:59:04;;;;;;;0.77;0.77;;;;;;;;;;4951318;29;20218;-62
2022/04/11 01:01:31;;;;;;;1.10;1.00;;;;;;;;;;4952333;29;20214;-61
2022/04/11 01:03:59;;;;;;;1.00;0.97;;;;;;;;;;4952724;29;20206;-61
2022/04/11 01:06:26;;;;;;;0.90;0.90;;;;;;;;;;4952179;29;20209;-61
2022/04/11 01:08:56;;;;;;;1.00;1.00;;;;;;;;;;4948930;29;20309;-61
2022/04/11 01:11:23;;;;;;;0.97;0.93;;;;;;;;;;4951766;29;20229;-61
2022/04/11 01:13:50;;;;;;;1.10;1.10;;;;;;;;;;4957479;28;20665;-61
2022/04/11 01:16:27;;;;;;;4.57;1.70;;;;;;;;;;4949473;28;20455;-61
2022/04/11 01:18:54;;;;;;;1.20;1.20;;;;;;;;;;4951468;29;20301;-61
2022/04/11 01:21:21;;;;;;;1.10;1.10;;;;;;;;;;4947989;29;20260;-61
2022/04/11 01:23:49;;;;;;;3.90;1.30;;;;;;;;;;4952955;28;20215;-62
2022/04/11 01:26:16;;;;;;;1.57;1.47;;;;;;;;;;4948807;29;20219;-62
2022/04/11 01:28:44;;;;;;;1.73;1.50;;;;;;;;;;4952296;29;20238;-61
2022/04/11 01:31:11;;;;;;;1.70;1.60;;;;;;;;;;4947509;29;20210;-61
2022/04/11 01:33:38;;;;;;;1.40;1.30;;;;;;;;;;4952017;29;20418;-61
2022/04/11 01:36:05;;;;;;;1.60;1.50;;;;;;;;;;4951379;29;20638;-61
2022/04/11 01:38:32;;;;;;;2.90;2.57;;;;;;;;;;4952404;29;20285;-61
2022/04/11 01:41:00;;;;;;;3.73;2.30;;;;;;;;;;4949995;29;20217;-61
2022/04/11 01:43:27;;;;;;;7.97;3.43;;;;;;;;;;4952148;29;20217;-61
2022/04/11 01:45:54;;;;;;;2.90;2.53;;;;;;;;;;4950510;29;20262;-62
2022/04/11 01:48:21;;;;;;;2.10;1.67;;;;;;;;;;4950675;29;20214;-61
2022/04/11 01:50:48;;;;;;;2.10;2.00;;;;;;;;;;4949385;29;20211;-62
2022/04/11 01:53:16;;;;;;;1.90;1.80;;;;;;;;;;4951825;29;20222;-62
2022/04/11 01:55:43;;;;;;;1.37;1.37;;;;;;;;;;4949278;29;20227;-62
2022/04/11 01:58:12;;;;;;;4.37;1.70;;;;;;;;;;4951151;29;20206;-62
2022/04/11 02:00:39;;;;;;;5.67;2.30;;;;;;;;;;4950575;29;20458;-62
2022/04/11 02:03:07;;;;;;;1.77;1.67;;;;;;;;;;4949488;28;20262;-62
2022/04/11 02:05:34;;;;;;;4.90;1.93;;;;;;;;;;4946680;29;20203;-62
2022/04/11 02:08:03;;;;;;;4.80;1.27;;;;;;;;;;4949049;29;20953;-62
2022/04/11 02:10:30;;;;;;;1.50;1.40;;;;;;;;;;4948568;29;20668;-62
2022/04/11 02:12:58;;;;;;;1.80;1.70;;;;;;;;;;4949975;29;20206;-62
2022/04/11 02:15:26;;;;;;;4.00;1.83;;;;;;;;;;4945494;29;20227;-62
2022/04/11 02:17:53;;;;;;;1.57;1.53;;;;;;;;;;4949047;29;20305;-62
2022/04/11 02:20:20;;;;;;;6.23;1.20;;;;;;;;;;4946687;29;20222;-62
2022/04/11 02:22:48;;;;;;;2.70;1.87;;;;;;;;;;4948521;29;20284;-62
2022/04/11 02:25:15;;;;;;;1.73;1.57;;;;;;;;;;4945159;29;20655;-61
2022/04/11 02:27:43;;;;;;;1.43;1.30;;;;;;;;;;4948407;29;20209;-61
2022/04/11 02:30:11;;;;;;;2.93;1.63;;;;;;;;;;4947401;29;20772;-61
2022/04/11 02:32:40;;;;;;;1.63;1.53;;;;;;;;;;4949361;29;20242;-61
2022/04/11 02:35:07;;;;;;;1.70;1.60;;;;;;;;;;4946788;29;20219;-62
2022/04/11 02:37:34;;;;;;;2.30;2.10;;;;;;;;;;4947154;29;20710;-62
2022/04/11 02:40:01;;;;;;;2.20;2.10;;;;;;;;;;4950581;29;20582;-62
2022/04/11 02:42:28;;;;;;;1.90;1.90;;;;;;;;;;4947805;29;20210;-61
2022/04/11 02:44:56;;;;;;;1.70;1.60;;;;;;;;;;4949006;29;20604;-61
2022/04/11 02:47:23;;;;;;;2.90;1.87;;;;;;;;;;4946815;29;20511;-61
2022/04/11 02:49:51;;;;;;;2.00;1.90;;;;;;;;;;4945533;29;20296;-62
2022/04/11 02:52:19;;;;;;;3.50;1.83;;;;;;;;;;4947091;29;20213;-61
2022/04/11 02:54:47;;;;;;;2.37;1.73;;;;;;;;;;4948346;29;20582;-62
2022/04/11 02:57:14;;;;;;;1.97;1.87;;;;;;;;;;4948879;29;20229;-61
2022/04/11 02:59:41;;;;;;;3.57;2.00;;;;;;;;;;4950069;29;20278;-61
2022/04/11 03:02:08;;;;;;;1.80;1.70;;;;;;;;;;4946773;29;20203;-62
2022/04/11 03:04:35;;;;;;;1.70;1.60;;;;;;;;;;4949790;29;20616;-61
2022/04/11 03:07:03;;;;;;;1.87;1.70;;;;;;;;;;4949455;29;20214;-62
2022/04/11 03:09:30;;;;;;;3.33;2.03;;;;;;;;;;4949612;29;20205;-61
2022/04/11 03:11:57;;;;;;;2.23;2.03;;;;;;;;;;4947391;29;20635;-62
2022/04/11 03:14:24;;;;;;;6.87;1.73;;;;;;;;;;4947384;28;20265;-61
2022/04/11 03:16:51;;;;;;;1.43;1.33;;;;;;;;;;4948846;29;20237;-62
2022/04/11 03:19:19;;;;;;;1.10;1.10;;;;;;;;;;4947629;29;20202;-62
2022/04/11 03:21:47;;;;;;;3.13;1.83;;;;;;;;;;4949417;29;20269;-62
2022/04/11 03:24:15;;;;;;;1.90;1.80;;;;;;;;;;4947475;29;20211;-62
2022/04/11 03:26:42;;;;;;;2.33;2.20;;;;;;;;;;4948406;29;20729;-62
2022/04/11 03:29:09;;;;;;;1.70;1.70;;;;;;;;;;4947267;29;20230;-62
2022/04/11 03:31:36;;;;;;;1.63;1.53;;;;;;;;;;4948852;29;20306;-61
2022/04/11 03:34:03;;;;;;;2.43;2.23;;;;;;;;;;4949281;29;20217;-62
2022/04/11 03:36:30;;;;;;;1.43;1.43;;;;;;;;;;4937085;29;20245;-62
2022/04/11 03:38:58;;;;;;;1.40;1.40;;;;;;;;;;4934018;29;20214;-61
2022/04/11 03:41:27;;;;;;;2.10;2.00;;;;;;;;;;4944334;29;20216;-62
2022/04/11 03:43:54;;;;;;;5.27;2.90;;;;;;;;;;4950510;29;20206;-61
2022/04/11 03:46:21;;;;;;;6.90;1.63;;;;;;;;;;4948458;29;20209;-62
2022/04/11 03:48:48;;;;;;;2.47;2.03;;;;;;;;;;4951267;28;20210;-60
2022/04/11 03:51:15;;;;;;;1.77;1.67;;;;;;;;;;4949300;29;20262;-61
2022/04/11 03:53:42;;;;;;;2.20;2.00;;;;;;;;;;4950243;28;20260;-60
2022/04/11 03:56:09;;;;;;;1.37;1.27;;;;;;;;;;4957461;28;20244;-60
2022/04/11 03:58:38;;;;;;;1.60;1.50;;;;;;;;;;4958026;28;20209;-60
2022/04/11 04:01:05;;;;;;;1.70;1.60;;;;;;;;;;4954431;28;20202;-60
2022/04/11 04:03:32;;;;;;;1.17;1.17;;;;;;;;;;4953630;28;20717;-60
2022/04/11 04:05:59;;;;;;;1.40;1.40;;;;;;;;;;4934670;28;20206;-60
2022/04/11 04:08:26;;;;;;;3.07;1.30;;;;;;;;;;4945956;28;20215;-61
2022/04/11 04:10:53;;;;;;;1.57;1.57;;;;;;;;;;4945116;29;20834;-60
2022/04/11 04:13:20;;;;;;;1.87;1.77;;;;;;;;;;4949269;29;20272;-60
2022/04/11 04:15:48;;;;;;;1.40;1.33;;;;;;;;;;4948564;29;20219;-60
2022/04/11 04:18:16;;;;;;;2.93;2.70;;;;;;;;;;4949686;29;20534;-60
2022/04/11 04:20:43;;;;;;;3.03;2.40;;;;;;;;;;4945194;29;20226;-60
2022/04/11 04:23:10;;;;;;;7.73;2.17;;;;;;;;;;4930557;29;20209;-60
2022/04/11 04:25:37;;;;;;;2.83;2.40;;;;;;;;;;4938938;29;20230;-60
2022/04/11 04:28:05;;;;;;;4.13;2.03;;;;;;;;;;4952096;28;20216;-60
2022/04/11 04:30:32;;;;;;;2.20;2.00;;;;;;;;;;4945924;29;20745;-60
2022/04/11 04:33:00;;;;;;;2.47;2.17;;;;;;;;;;4934161;29;20221;-60
2022/04/11 04:35:28;;;;;;;1.70;1.60;;;;;;;;;;4937083;29;20639;-60
2022/04/11 04:37:55;;;;;;;1.60;1.53;;;;;;;;;;4933963;29;20233;-60
2022/04/11 04:40:22;;;;;;;1.90;1.80;;;;;;;;;;4934394;29;20212;-61
2022/04/11 04:42:49;;;;;;;2.10;2.00;;;;;;;;;;4941223;29;20213;-60
2022/04/11 04:45:18;;;;;;;2.43;2.20;;;;;;;;;;4950082;29;20898;-61
2022/04/11 04:47:45;;;;;;;3.53;2.63;;;;;;;;;;4948940;29;20206;-61
2022/04/11 04:50:13;;;;;;;1.60;1.50;;;;;;;;;;4953063;29;20217;-60
2022/04/11 04:52:40;;;;;;;2.27;2.07;;;;;;;;;;4953657;29;20213;-61
2022/04/11 04:55:08;;;;;;;3.50;2.57;;;;;;;;;;4953041;29;20227;-61
2022/04/11 04:57:35;;;;;;;3.80;2.47;;;;;;;;;;4935136;29;20722;-61
2022/04/11 05:00:02;;;;;;;2.33;2.03;;;;;;;;;;4939473;29;20218;-61
2022/04/11 05:02:35;;;;;;;2.87;1.97;;;;;;;;;;4953690;29;20277;-61
2022/04/11 05:05:04;;;;;;;4.43;2.50;;;;;;;;;;4948416;29;20306;-61
2022/04/11 05:07:32;;;;;;;1.70;1.60;;;;;;;;;;4944733;29;20209;-61
2022/04/11 05:09:59;;;;;;;3.77;2.73;;;;;;;;;;4953055;29;20225;-61
2022/04/11 05:12:26;;;;;;;2.33;2.13;;;;;;;;;;4939752;29;20681;-61
2022/04/11 05:14:53;;;;;;;1.70;1.67;;;;;;;;;;4938784;29;20268;-61
2022/04/11 05:17:21;;;;;;;2.27;2.07;;;;;;;;;;4951211;29;20233;-61
2022/04/11 05:19:48;;;;;;;1.73;1.63;;;;;;;;;;4946096;29;20583;-61
2022/04/11 05:22:15;;;;;;;3.00;1.93;;;;;;;;;;4942174;29;20209;-61
2022/04/11 05:24:43;;;;;;;2.37;2.10;;;;;;;;;;4953196;29;20240;-61
2022/04/11 05:27:10;;;;;;;2.93;2.20;;;;;;;;;;4950386;29;20293;-61
2022/04/11 05:29:37;;;;;;;2.10;1.97;;;;;;;;;;4952870;29;20481;-61
2022/04/11 05:32:05;;;;;;;2.10;2.00;;;;;;;;;;4952319;29;20565;-61
2022/04/11 05:34:32;;;;;;;2.80;2.60;;;;;;;;;;4951976;29;20229;-61
2022/04/11 05:36:59;;;;;;;3.10;2.90;;;;;;;;;;4941839;29;20227;-61
2022/04/11 05:39:26;;;;;;;1.93;1.80;;;;;;;;;;4937231;29;20657;-61
2022/04/11 05:41:54;;;;;;;2.40;2.13;;;;;;;;;;4934142;29;20223;-61
2022/04/11 05:44:21;;;;;;;2.30;2.17;;;;;;;;;;4933868;29;20266;-61
2022/04/11 05:46:52;;;;;;;1.60;1.60;;;;;;;;;;4939617;29;20289;-61
2022/04/11 05:49:19;;;;;;;4.30;2.17;;;;;;;;;;4952478;29;20207;-61
2022/04/11 05:51:46;;;;;;;5.20;2.00;;;;;;;;;;4952400;29;20230;-61
2022/04/11 05:54:13;;;;;;;2.60;2.30;;;;;;;;;;4952772;29;20309;-61
2022/04/11 05:56:41;;;;;;;2.70;2.50;;;;;;;;;;4949370;29;20321;-62
2022/04/11 05:59:09;;;;;;;2.37;2.27;;;;;;;;;;4933347;29;20218;-62
2022/04/11 06:01:36;;;;;;;2.90;2.60;;;;;;;;;;4933159;29;20219;-61
2022/04/11 06:04:03;;;;;;;4.83;2.43;;;;;;;;;;4934278;29;20223;-61
2022/04/11 06:06:30;;;;;;;3.30;3.00;;;;;;;;;;4933694;29;20208;-62
2022/04/11 06:08:57;;;;;;;3.63;3.33;;;;;;;;;;4933026;29;20632;-61
2022/04/11 06:11:24;;;;;;;3.40;3.03;;;;;;;;;;4952236;29;20246;-62
2022/04/11 06:13:51;;;;;;;4.40;2.80;;;;;;;;;;4952127;29;20216;-62
2022/04/11 06:16:20;;;;;;;3.57;2.87;;;;;;;;;;4951030;29;20222;-61
2022/04/11 06:18:47;;;;;;;1.80;1.70;;;;;;;;;;4936323;29;20779;-61
2022/04/11 06:21:14;;;;;;;6.03;2.30;;;;;;;;;;4950831;29;20211;-62
2022/04/11 06:23:41;;;;;;;1.30;1.30;;;;;;;;;;4938336;29;20215;-62
2022/04/11 06:26:08;;;;;;;3.13;2.93;;;;;;;;;;4933729;29;20231;-61
2022/04/11 06:28:35;;;;;;;6.20;2.90;;;;;;;;;;4943706;29;20243;-61
2022/04/11 06:31:02;;;;;;;3.03;2.83;;;;;;;;;;4951786;29;20214;-61
2022/04/11 06:33:30;;;;;;;3.00;2.80;;;;;;;;;;4951951;29;20214;-61
2022/04/11 06:35:57;;;;;;;2.73;2.30;;;;;;;;;;4940056;29;20836;-61
2022/04/11 06:38:24;;;;;;;2.93;2.73;;;;;;;;;;4941996;29;20290;-62
2022/04/11 06:40:51;;;;;;;4.03;2.07;;;;;;;;;;4950727;29;20830;-61
2022/04/11 06:43:18;;;;;;;5.90;3.00;;;;;;;;;;4951680;29;20214;-62
2022/04/11 06:45:45;;;;;;;2.27;2.10;;;;;;;;;;4941206;29;20663;-62
2022/04/11 06:48:12;;;;;;;5.17;2.60;;;;;;;;;;4949395;29;20215;-62
2022/04/11 06:50:40;;;;;;;2.87;2.53;;;;;;;;;;4950980;28;20234;-62
2022/04/11 06:53:07;;;;;;;2.40;2.30;;;;;;;;;;4948630;29;20416;-62
2022/04/11 06:55:34;;;;;;;1.07;1.07;;;;;;;;;;4949774;29;20211;-62
2022/04/11 06:58:02;;;;;;;3.03;1.83;;;;;;;;;;4948450;29;20235;-62
2022/04/11 07:00:29;;;;;;;3.43;1.90;;;;;;;;;;4951486;29;20380;-62
2022/04/11 07:02:56;;;;;;;2.40;2.17;;;;;;;;;;4944419;29;20709;-62
2022/04/11 07:05:23;;;;;;;4.67;1.57;;;;;;;;;;4944707;29;20215;-62
2022/04/11 07:07:51;;;;;;;2.20;2.00;;;;;;;;;;4938071;29;20207;-63
2022/04/11 07:10:18;;;;;;;2.00;1.90;;;;;;;;;;4932115;29;20211;-62
2022/04/11 07:12:45;;;;;;;1.57;1.47;;;;;;;;;;4932067;29;20204;-62
2022/04/11 07:15:12;;;;;;;1.87;1.77;;;;;;;;;;4935129;29;20214;-62
2022/04/11 07:17:39;;;;;;;2.30;1.60;;;;;;;;;;4948715;29;20740;-62
2022/04/11 07:20:07;;;;;;;1.40;1.33;;;;;;;;;;4932799;29;20223;-62
2022/04/11 07:22:34;;;;;;;2.90;1.60;;;;;;;;;;4950636;29;20210;-62
2022/04/11 07:25:03;;;;;;;2.80;2.07;;;;;;;;;;4950565;29;20234;-62
2022/04/11 07:27:30;;;;;;;0.90;0.90;;;;;;;;;;4944412;29;20270;-62
2022/04/11 07:29:57;;;;;;;1.90;1.80;;;;;;;;;;4949394;29;20239;-62
2022/04/11 07:32:24;;;;;;;1.50;1.40;;;;;;;;;;4931514;29;20243;-63
2022/04/11 07:34:51;;;;;;;1.77;1.67;;;;;;;;;;4931511;29;20686;-62
2022/04/11 07:37:19;;;;;;;1.30;1.20;;;;;;;;;;4949998;29;20215;-62
2022/04/11 07:39:46;;;;;;;1.57;1.47;;;;;;;;;;4936245;29;20683;-62
2022/04/11 07:42:14;;;;;;;1.87;1.50;;;;;;;;;;4950738;29;20692;-61
2022/04/11 07:44:41;;;;;;;1.40;1.40;;;;;;;;;;4949777;29;20299;-62
2022/04/11 07:47:08;;;;;;;1.40;1.30;;;;;;;;;;4949225;29;20360;-61
2022/04/11 07:49:35;;;;;;;1.13;1.13;;;;;;;;;;4933671;29;20575;-61
2022/04/11 07:52:02;;;;;;;1.67;1.57;;;;;;;;;;4941733;28;20289;-61
2022/04/11 07:54:29;;;;;;;3.10;1.20;;;;;;;;;;4970124;28;20691;-61
2022/04/11 07:56:56;;;;;;;3.13;1.70;;;;;;;;;;4943176;28;20222;-62
2022/04/11 07:59:25;;;;;;;1.87;1.33;;;;;;;;;;4943255;29;20593;-61
2022/04/11 08:01:52;;;;;;;1.50;1.30;;;;;;;;;;4938567;29;20212;-62
2022/04/11 08:04:19;;;;;;;0.90;0.90;;;;;;;;;;4935601;29;20215;-62
2022/04/11 08:06:46;;;;;;;0.93;0.73;;;;;;;;;;4935225;29;20274;-61
2022/04/11 08:09:13;;;;;;;1.00;1.00;;;;;;;;;;4942953;29;20210;-61
2022/04/11 08:11:40;;;;;;;0.90;0.90;;;;;;;;;;4953690;29;20682;-62
2022/04/11 08:14:08;;;;;;;1.90;1.20;;;;;;;;;;4945438;29;20214;-61
2022/04/11 08:16:36;;;;;;;1.80;1.20;;;;;;;;;;4942019;29;20215;-62
2022/04/11 08:19:03;;;;;;;1.03;1.03;;;;;;;;;;4938140;29;20587;-61
2022/04/11 08:21:30;;;;;;;1.77;1.00;;;;;;;;;;4952973;29;20580;-61
2022/04/11 08:23:57;;;;;;;1.20;1.20;;;;;;;;;;4948704;29;20344;-61
2022/04/11 08:26:24;;;;;;;2.00;1.10;;;;;;;;;;4951995;29;20242;-61
2022/04/11 08:28:51;;;;;;;1.00;1.00;;;;;;;;;;4946561;29;20756;-61
2022/04/11 08:31:18;;;;;;;1.13;1.00;;;;;;;;;;4934179;29;20218;-62
2022/04/11 08:33:47;;;;;;;3.73;1.10;;;;;;;;;;4950239;29;20612;-62
2022/04/11 08:36:14;;;;;;;0.93;0.93;;;;;;;;;;4953280;29;20207;-61
2022/04/11 08:38:41;;;;;;;0.73;0.73;;;;;;;;;;4951365;29;20286;-62
2022/04/11 08:41:09;;;;;;;0.80;0.80;;;;;;;;;;4953162;29;20757;-61
2022/04/11 08:43:37;;;;;;;0.80;0.80;;;;;;;;;;4952713;29;20211;-61
2022/04/11 08:46:06;;;;;;;0.87;0.80;;;;;;;;;;4938907;29;20303;-61
2022/04/11 08:48:34;;;;;;;1.23;0.70;;;;;;;;;;4943002;29;20203;-61
2022/04/11 08:51:03;;;;;;;1.10;0.87;;;;;;;;;;4953782;29;20215;-62
2022/04/11 08:53:30;;;;;;;1.77;0.97;;;;;;;;;;4952628;29;20215;-61
2022/04/11 08:55:57;;;;;;;0.77;0.77;;;;;;;;;;4934536;29;20226;-61
2022/04/11 08:58:24;;;;;;;0.80;0.80;;;;;;;;;;4934668;29;20223;-61
2022/04/11 09:00:51;;;;;;;0.80;0.80;;;;;;;;;;4953508;29;20316;-61
2022/04/11 09:03:18;;;;;;;0.70;0.70;;;;;;;;;;4953317;29;20211;-62
2022/04/11 09:05:45;;;;;;;0.73;0.73;;;;;;;;;;4939931;29;20208;-60
2022/04/11 09:08:13;;;;;;;0.70;0.70;;;;;;;;;;4939129;29;20301;-60
2022/04/11 09:10:42;;;;;;;0.80;0.80;;;;;;;;;;4956158;28;20226;-61
2022/04/11 09:13:10;;;;;;;0.90;0.90;;;;;;;;;;4953324;28;20218;-62
2022/04/11 09:15:41;;;;;;;1.17;1.10;;;;;;;;;;4953031;29;20211;-60
2022/04/11 09:18:08;;;;;;;0.50;0.50;;;;;;;;;;4953545;29;20531;-60
2022/04/11 09:20:35;;;;;;;0.80;0.80;;;;;;;;;;4952461;29;20202;-61
2022/04/11 09:23:02;;;;;;;1.13;1.00;;;;;;;;;;4948032;29;20224;-61
2022/04/11 09:25:31;;;;;;;1.07;0.80;;;;;;;;;;4942902;29;20226;-61
2022/04/11 09:28:06;;;;;;;0.73;0.67;;;;;;;;;;4950838;29;20203;-61
2022/04/11 09:30:33;;;;;;;1.20;0.83;;;;;;;;;;4951454;29;20301;-60
2022/04/11 09:33:02;;;;;;;0.87;0.87;;;;;;;;;;4953428;29;20214;-61
2022/04/11 09:35:30;;;;;;;1.00;1.00;;;;;;;;;;4948899;29;20237;-61
2022/04/11 09:38:06;;;;;;;0.77;0.77;;;;;;;;;;4953410;29;20250;-61
2022/04/11 09:40:37;;;;;;;1.27;1.20;;;;;;;;;;4952910;29;20266;-61
2022/04/11 09:43:05;;;;;;;1.17;1.17;;;;;;;;;;4953034;29;20289;-60
2022/04/11 09:45:32;;;;;;;1.10;0.82;;;;;;;;;;4950695;29;20207;-61
2022/04/11 09:48:00;;;;;;;2.05;0.90;;;;;;;;;;4950637;29;20685;-60
2022/04/11 09:50:29;;;;;;;3.33;1.10;;;;;;;;;;4952771;29;20234;-60
2022/04/11 09:53:06;;;;;;;1.17;0.77;;;;;;;;;;4953035;29;20223;-61
2022/04/11 09:55:34;;;;;;;0.98;0.98;;;;;;;;;;4949308;29;20206;-60
2022/04/11 09:58:04;;;;;;;1.50;1.20;;;;;;;;;;4945606;29;20211;-60
2022/04/11 10:00:32;;;;;;;0.90;0.90;;;;;;;;;;4945357;28;20279;-60
2022/04/11 10:02:59;;;;;;;0.93;0.93;;;;;;;;;;4934819;29;20216;-61
2022/04/11 10:05:26;;;;;;;2.78;1.10;;;;;;;;;;4933383;29;20215;-60
2022/04/11 10:07:54;;;;;;;1.70;0.98;;;;;;;;;;4949050;29;20214;-61
2022/04/11 10:10:22;;;;;;;1.30;1.20;;;;;;;;;;4952327;29;20234;-62
2022/04/11 10:12:51;;;;;;;1.20;1.20;;;;;;;;;;4951753;29;20211;-62
2022/04/11 10:15:20;;;;;;;1.88;1.35;;;;;;;;;;4952810;29;20265;-61
2022/04/11 10:17:47;;;;;;;1.15;1.15;;;;;;;;;;4948398;29;20215;-62
2022/04/11 10:20:14;;;;;;;1.15;1.15;;;;;;;;;;4952502;29;20694;-62
2022/04/11 10:22:45;;;;;;;1.58;1.10;;;;;;;;;;4951214;29;20690;-61
2022/04/11 10:25:13;;;;;;;1.17;1.17;;;;;;;;;;4951588;28;20240;-62
2022/04/11 10:27:40;;;;;;;1.50;1.42;;;;;;;;;;4951155;29;20219;-62
2022/04/11 10:30:26;;;;;;;1.10;1.10;;;;;;;;;;4952327;29;20247;-62
2022/04/11 10:32:55;;;;;;;1.10;1.00;;;;;;;;;;4948202;29;20233;-62
2022/04/11 10:35:33;;;;;;;1.40;1.30;;;;;;;;;;4952369;29;20299;-62
2022/04/11 10:38:07;;;;;;;1.30;1.30;;;;;;;;;;4951685;29;20301;-62
2022/04/11 10:40:34;;;;;;;2.45;1.10;;;;;;;;;;4951905;29;20670;-60
2022/04/11 10:43:13;;;;;;;1.10;1.10;;;;;;;;;;4948630;29;20774;-60
2022/04/11 10:45:41;;;;;;;1.25;1.05;;;;;;;;;;4939083;29;20207;-61
2022/04/11 10:48:09;;;;;;;1.50;1.40;;;;;;;;;;4948179;28;20589;-61
2022/04/11 10:50:38;;;;;;;2.10;1.48;;;;;;;;;;4940097;29;20674;-61
2022/04/11 10:53:12;;;;;;;1.55;1.45;;;;;;;;;;4932846;29;20208;-61
2022/04/11 10:55:58;;;;;;;1.55;1.42;;;;;;;;;;4933950;29;20205;-60
2022/04/11 10:58:40;;;;;;;1.60;1.50;;;;;;;;;;4951726;29;20629;-61
2022/04/11 11:01:07;;;;;;;4.60;1.10;;;;;;;;;;4933484;29;20733;-61
2022/04/11 11:03:35;;;;;;;1.13;1.13;;;;;;;;;;4932557;29;20226;-61
2022/04/11 11:06:16;;;;;;;1.35;1.15;;;;;;;;;;4941634;29;20211;-60
2022/04/11 11:08:43;;;;;;;1.20;1.20;;;;;;;;;;4949759;29;20298;-60
2022/04/11 11:11:20;;;;;;;1.23;1.13;;;;;;;;;;4945523;29;20262;-61
2022/04/11 11:13:48;;;;;;;1.50;1.40;;;;;;;;;;4949280;29;20677;-61
2022/04/11 11:16:42;;;;;;;1.70;1.00;;;;;;;;;;4949294;29;20207;-61
2022/04/11 11:19:12;;;;;;;2.00;1.20;;;;;;;;;;4916294;29;20230;-60
2022/04/11 11:21:54;;;;;;;1.13;1.10;;;;;;;;;;4951247;29;20748;-60
2022/04/11 11:24:21;;;;;;;1.05;1.05;;;;;;;;;;4947660;29;20617;-60
2022/04/11 11:26:49;;;;;;;1.02;0.90;;;;;;;;;;4940915;29;20231;-60
2022/04/11 11:29:18;;;;;;;1.15;1.15;;;;;;;;;;4941131;29;20797;-60
2022/04/11 11:31:46;;;;;;;1.20;1.00;;;;;;;;;;4951371;29;20223;-61
2022/04/11 11:34:16;;;;;;;0.90;0.90;;;;;;;;;;4944268;29;20211;-61
2022/04/11 11:36:43;;;;;;;1.40;1.30;;;;;;;;;;4931984;29;20227;-60
2022/04/11 11:39:13;;;;;;;0.95;0.80;;;;;;;;;;4933077;29;20231;-61
2022/04/11 11:41:42;;;;;;;1.23;1.13;;;;;;;;;;4932225;29;20275;-61
2022/04/11 11:44:11;;;;;;;1.00;1.00;;;;;;;;;;4937979;29;20210;-61
2022/04/11 11:46:51;;;;;;;1.45;1.00;;;;;;;;;;4951058;29;20704;-61
2022/04/11 11:49:20;;;;;;;1.13;1.00;;;;;;;;;;4946118;29;20203;-61
2022/04/11 11:51:47;;;;;;;1.10;1.10;;;;;;;;;;4931910;29;20253;-61
2022/04/11 11:54:15;;;;;;;1.15;0.98;;;;;;;;;;4935614;29;20203;-61
2022/04/11 11:56:43;;;;;;;1.23;1.13;;;;;;;;;;4951994;28;20214;-61
2022/04/11 11:59:10;;;;;;;1.25;1.25;;;;;;;;;;4932013;29;20319;-61
2022/04/11 12:01:37;;;;;;;1.10;1.02;;;;;;;;;;4950563;29;20285;-61
2022/04/11 12:04:18;;;;;;;1.40;1.40;;;;;;;;;;4950685;29;20211;-61
2022/04/11 12:06:47;;;;;;;1.45;1.02;;;;;;;;;;4932211;29;20269;-61
2022/04/11 12:09:14;;;;;;;1.33;1.00;;;;;;;;;;4937154;29;20263;-61
2022/04/11 12:11:41;;;;;;;1.10;1.10;;;;;;;;;;4946186;29;20732;-61
2022/04/11 12:14:09;;;;;;;0.90;0.90;;;;;;;;;;4948511;29;20214;-60
2022/04/11 12:16:37;;;;;;;1.00;1.00;;;;;;;;;;4943375;28;20328;-62
2022/04/11 12:19:05;;;;;;;0.90;0.90;;;;;;;;;;4931569;29;20238;-59
2022/04/11 12:21:33;;;;;;;1.08;1.08;;;;;;;;;;4946943;29;20257;-59
2022/04/11 12:24:01;;;;;;;1.63;0.98;;;;;;;;;;4949150;29;20211;-59
2022/04/11 12:26:30;;;;;;;1.00;1.00;;;;;;;;;;4931375;29;20231;-65
2022/04/11 12:28:57;;;;;;;0.90;0.90;;;;;;;;;;4943542;28;20243;-61
2022/04/11 12:31:24;;;;;;;3.00;0.90;;;;;;;;;;4939434;29;20631;-61
2022/04/11 12:33:52;;;;;;;2.85;0.90;;;;;;;;;;4942549;29;20212;-60
2022/04/11 12:36:20;;;;;;;0.93;0.90;;;;;;;;;;4942687;29;20211;-59
2022/04/11 12:38:52;;;;;;;0.70;0.70;;;;;;;;;;4935560;29;20324;-59
2022/04/11 12:41:30;;;;;;;4.30;1.48;;;;;;;;;;4930576;29;20270;-59
2022/04/11 12:44:21;;;;;;;2.25;1.00;;;;;;;;;;4946937;28;20207;-59
2022/04/11 12:46:49;;;;;;;0.88;0.88;;;;;;;;;;4923457;29;20666;-59
2022/04/11 12:49:16;;;;;;;1.17;1.08;;;;;;;;;;4939056;29;20212;-59
2022/04/11 12:51:44;;;;;;;0.55;0.55;;;;;;;;;;4942739;29;20729;-60
2022/04/11 12:54:12;;;;;;;0.88;0.80;;;;;;;;;;4938923;29;20214;-59
2022/04/11 12:56:42;;;;;;;0.90;0.90;;;;;;;;;;4949780;29;20245;-59
2022/04/11 12:59:10;;;;;;;0.73;0.60;;;;;;;;;;4932216;29;20232;-59
2022/04/11 13:01:56;;;;;;;0.85;0.73;;;;;;;;;;4930658;29;20226;-60
2022/04/11 13:04:23;;;;;;;0.73;0.68;;;;;;;;;;4935144;29;20659;-60
2022/04/11 13:06:51;;;;;;;0.40;0.40;;;;;;;;;;4937284;29;20216;-59
2022/04/11 13:09:19;;;;;;;0.82;0.68;;;;;;;;;;4932906;29;20214;-59
2022/04/11 13:11:48;;;;;;;0.50;0.50;;;;;;;;;;4930605;29;20573;-60
2022/04/11 13:14:16;;;;;;;0.40;0.40;;;;;;;;;;4934221;29;20322;-59
2022/04/11 13:19:28;;;;;;;0.80;0.80;;;;;;;;;;4936787;29;20247;-59
2022/04/11 13:21:55;;;;;;;0.70;0.70;;;;;;;;;;4930588;29;20686;-60
2022/04/11 13:24:22;;;;;;;0.20;0.20;;;;;;;;;;4938496;29;20705;-60
2022/04/11 13:26:51;;;;;;;0.70;0.60;;;;;;;;;;4931322;29;20714;-60
2022/04/11 13:29:18;;;;;;;0.60;0.60;;;;;;;;;;4944431;29;20596;-59
2022/04/11 13:31:45;;;;;;;0.50;0.50;;;;;;;;;;4930151;29;20223;-59
2022/04/11 13:34:12;;;;;;;0.50;0.50;;;;;;;;;;4933853;29;20210;-60
2022/04/11 13:36:39;;;;;;;0.50;0.50;;;;;;;;;;4948858;29;20235;-60
2022/04/11 13:39:11;;;;;;;1.58;0.60;;;;;;;;;;4944726;29;20207;-60
2022/04/11 13:41:38;;;;;;;0.45;0.45;;;;;;;;;;4963883;28;20274;-60
2022/04/11 13:44:07;;;;;;;0.70;0.70;;;;;;;;;;4943072;29;20222;-60
2022/04/11 13:46:34;;;;;;;0.50;0.50;;;;;;;;;;4940565;29;20219;-60
2022/04/11 13:49:01;;;;;;;1.75;0.43;;;;;;;;;;4944509;29;20751;-60
2022/04/11 13:51:28;;;;;;;0.65;0.50;;;;;;;;;;4949003;29;20219;-60
2022/04/11 13:53:56;;;;;;;2.08;0.30;;;;;;;;;;4932519;29;20215;-60
2022/04/11 13:56:23;;;;;;;0.40;0.40;;;;;;;;;;4939626;28;20398;-60
2022/04/11 13:58:50;;;;;;;0.55;0.55;;;;;;;;;;4945317;28;20313;-60
2022/04/11 14:01:18;;;;;;;0.50;0.50;;;;;;;;;;4946570;29;20235;-60
2022/04/11 14:03:46;;;;;;;0.60;0.60;;;;;;;;;;4947851;29;20217;-60
2022/04/11 14:06:13;;;;;;;1.98;0.65;;;;;;;;;;4947016;29;20210;-60
2022/04/11 14:08:40;;;;;;;0.40;0.40;;;;;;;;;;4947286;29;20215;-59
2022/04/11 14:11:07;;;;;;;0.65;0.65;;;;;;;;;;4947686;29;20688;-59
2022/04/11 14:13:34;;;;;;;0.60;0.60;;;;;;;;;;4946851;29;20218;-60
2022/04/11 14:16:02;;;;;;;0.50;0.50;;;;;;;;;;4939522;29;20212;-60
2022/04/11 14:18:30;;;;;;;0.60;0.60;;;;;;;;;;4947831;29;20633;-60
2022/04/11 14:20:58;;;;;;;0.60;0.60;;;;;;;;;;4939666;29;20267;-62
2022/04/11 14:23:27;;;;;;;0.40;0.40;;;;;;;;;;4929875;29;20211;-60
2022/04/11 14:25:54;;;;;;;0.82;0.47;;;;;;;;;;4929606;29;20603;-60
2022/04/11 14:28:21;;;;;;;0.63;0.47;;;;;;;;;;4934812;29;20234;-60
2022/04/11 14:30:49;;;;;;;0.50;0.50;;;;;;;;;;4940399;29;20267;-60
2022/04/11 14:33:16;;;;;;;1.10;0.60;;;;;;;;;;4929689;29;20580;-60
2022/04/11 14:35:45;;;;;;;3.00;0.85;;;;;;;;;;4937642;29;20660;-60
2022/04/11 14:38:12;;;;;;;0.50;0.50;;;;;;;;;;4948110;29;20682;-60
2022/04/11 14:40:40;;;;;;;0.57;0.57;;;;;;;;;;4940231;29;20279;-59
2022/04/11 14:43:07;;;;;;;0.65;0.65;;;;;;;;;;4947081;29;20404;-58
2022/04/11 14:45:34;;;;;;;0.73;0.65;;;;;;;;;;4946519;29;20222;-60
2022/04/11 14:48:01;;;;;;;0.60;0.60;;;;;;;;;;4931761;29;20738;-60
2022/04/11 14:50:28;;;;;;;0.60;0.60;;;;;;;;;;4943011;29;20207;-59